createdAt,value
2023-02-05T00:08:55.102Z,-4.50
2023-02-05T00:19:00.339Z,-4.70
2023-02-05T00:29:04.429Z,-4.70
2023-02-05T00:39:11.506Z,-5.00
2023-02-05T00:49:15.910Z,-5.60
2023-02-05T00:59:22.316Z,-6.00
2023-02-05T01:09:27.834Z,-6.40
2023-02-05T01:19:34.889Z,-6.40
2023-02-05T01:29:38.809Z,-6.30
2023-02-05T01:39:44.237Z,-6.20
2023-02-05T01:49:48.045Z,-6.10
2023-02-05T01:59:53.355Z,-6.00
2023-02-05T02:09:57.172Z,-6.20
2023-02-05T02:20:06.386Z,-6.10
2023-02-05T02:30:20.619Z,-6.20
2023-02-05T02:40:31.813Z,-6.10
2023-02-05T02:50:42.648Z,-6.00
2023-02-05T03:00:48.179Z,-5.90
2023-02-05T03:11:00.939Z,-5.90
2023-02-05T03:21:12.696Z,-5.80
2023-02-05T03:31:22.393Z,-5.70
2023-02-05T03:41:54.052Z,-5.60
2023-02-05T03:52:08.617Z,-5.60
2023-02-05T04:02:13.032Z,-5.50
2023-02-05T04:12:21.581Z,-5.40
2023-02-05T04:22:25.495Z,-6.00
2023-02-05T04:32:30.688Z,-6.70
2023-02-05T04:42:34.936Z,-7.10
2023-02-05T04:52:40.139Z,-7.40
2023-02-05T05:02:44.112Z,-7.80
2023-02-05T05:12:49.421Z,-8.20
2023-02-05T05:22:53.274Z,-8.80
2023-02-05T05:32:58.549Z,-9.20
2023-02-05T05:43:19.522Z,-9.50
2023-02-05T05:53:25.092Z,-9.80
2023-02-05T06:03:29.040Z,-10.10
2023-02-05T06:13:34.908Z,-10.40
2023-02-05T06:23:38.834Z,-10.40
2023-02-05T06:33:44.135Z,-10.30
2023-02-05T06:43:47.861Z,-9.70
2023-02-05T06:53:55.312Z,-8.80
2023-02-05T07:03:59.089Z,-7.90
2023-02-05T07:14:04.986Z,-7.20
2023-02-05T07:24:09.284Z,-6.70
2023-02-05T07:34:14.490Z,-6.30
2023-02-05T07:44:18.256Z,-6.00
2023-02-05T07:54:23.456Z,-5.70
2023-02-05T08:04:27.372Z,-5.50
2023-02-05T08:14:32.617Z,-5.20
2023-02-05T08:24:36.394Z,-4.80
2023-02-05T08:34:41.490Z,-4.60
2023-02-05T08:44:45.939Z,-4.00
2023-02-05T08:54:51.384Z,-3.40
2023-02-05T09:05:07.630Z,-3.00
2023-02-05T09:15:13.883Z,-2.70
2023-02-05T09:25:17.752Z,-2.30
2023-02-05T09:35:23.267Z,-2.10
2023-02-05T09:45:53.808Z,-2.30
2023-02-05T09:56:00.833Z,-2.80
2023-02-05T10:06:22.159Z,-2.90
2023-02-05T10:16:54.352Z,-2.90
2023-02-05T10:27:07.661Z,-2.90
2023-02-05T10:37:19.133Z,-2.90
2023-02-05T10:47:44.469Z,-3.00
2023-02-05T10:57:49.570Z,-3.30
2023-02-05T11:07:55.438Z,-3.40
2023-02-05T11:18:04.776Z,-3.30
2023-02-05T11:28:21.811Z,-3.00
2023-02-05T11:38:36.524Z,-1.50
2023-02-05T11:48:44.436Z,-1.80
2023-02-05T11:59:01.072Z,-2.20
2023-02-05T12:09:05.944Z,-0.90
2023-02-05T12:19:20.461Z,2.10
2023-02-05T12:29:47.992Z,1.90
2023-02-05T12:39:56.119Z,0.80
2023-02-05T12:50:13.917Z,0.70
2023-02-05T13:00:25.017Z,1.40
2023-02-05T13:10:35.043Z,1.40
2023-02-05T13:21:01.834Z,1.20
2023-02-05T13:31:23.885Z,0.60
2023-02-05T13:41:51.373Z,-0.40
2023-02-05T13:52:12.169Z,-0.70
2023-02-05T14:02:42.980Z,-1.20
2023-02-05T14:12:46.885Z,-1.30
2023-02-05T14:22:52.965Z,-1.50
2023-02-05T14:33:02.785Z,-1.80
2023-02-05T14:43:18.941Z,-2.00
2023-02-05T14:53:29.424Z,-2.60
2023-02-05T15:03:40.292Z,-3.00
2023-02-05T15:13:44.395Z,-3.30
2023-02-05T15:23:58.560Z,-3.70
2023-02-05T15:34:28.749Z,-4.00
2023-02-05T15:44:37.995Z,-4.20
2023-02-05T15:54:42.033Z,-4.30
2023-02-05T16:04:57.327Z,-4.40
2023-02-05T16:15:03.131Z,-4.50
2023-02-05T16:25:24.897Z,-4.60
2023-02-05T16:35:31.421Z,-4.70
2023-02-05T16:45:36.550Z,-4.70
2023-02-05T16:55:45.265Z,-4.70
2023-02-05T17:06:01.580Z,-4.70
2023-02-05T17:16:29.670Z,-4.60
2023-02-05T17:26:39.451Z,-4.60
2023-02-05T17:36:44.050Z,-4.60
2023-02-05T17:46:50.863Z,-4.60
2023-02-05T17:56:58.278Z,-4.60
2023-02-05T18:07:03.451Z,-4.50
2023-02-05T18:17:07.220Z,-4.50
2023-02-05T18:27:12.463Z,-4.60
2023-02-05T18:37:16.798Z,-4.50
2023-02-05T18:47:21.880Z,-4.70
2023-02-05T18:57:25.721Z,-4.70
2023-02-05T19:07:30.747Z,-4.70
2023-02-05T19:17:34.576Z,-4.70
2023-02-05T19:27:39.782Z,-4.80
2023-02-05T19:37:43.814Z,-4.80
2023-02-05T19:47:50.401Z,-4.80
2023-02-05T19:57:54.418Z,-4.80
2023-02-05T20:07:59.838Z,-4.80
2023-02-05T20:18:04.207Z,-4.80
2023-02-05T20:28:09.590Z,-4.80
2023-02-05T20:38:14.024Z,-4.80
2023-02-05T20:48:19.609Z,-4.90
2023-02-05T20:58:24.913Z,-4.80
2023-02-05T21:08:30.535Z,-4.80
2023-02-05T21:18:35.127Z,-4.80
2023-02-05T21:28:40.376Z,-4.80
2023-02-05T21:38:44.505Z,-4.80
2023-02-05T21:48:52.674Z,-4.80
2023-02-05T21:58:57.271Z,-4.80
2023-02-05T22:09:04.725Z,-4.80
2023-02-05T22:19:11.485Z,-4.80
2023-02-05T22:29:18.812Z,-4.80
2023-02-05T22:39:22.642Z,-4.80
2023-02-05T22:49:27.829Z,-4.90
2023-02-05T22:59:31.646Z,-5.00
2023-02-05T23:09:36.910Z,-5.10
2023-02-05T23:19:40.629Z,-5.00
2023-02-05T23:29:45.814Z,-5.00
2023-02-05T23:39:49.559Z,-4.90
2023-02-05T23:49:55.420Z,-4.90
2023-02-05T23:59:59.244Z,-4.90
